| Date | Time | Temp. (oF) | Dew Point (oF) | Rel. Hum. (%) | Press. (in.) | Wind Dir. | Wind Speed (mph) | Hourly Rainfall (in.) |
|
|---|---|---|---|---|---|---|---|---|---|
| 1 | 02/27 | 00:00 | 19 | 16 | 91 | 30.29 | NE | 2 | 0.00 |
| 2 | 02/26 | 23:00 | 19 | 16 | 91 | 30.31 | NNE | 3 | 0.00 |
| 3 | 02/26 | 22:00 | 20 | 18 | 92 | 30.32 | NNE | 5 | 0.00 |
| 4 | 02/26 | 21:00 | 20 | 18 | 93 | 30.32 | E | 3 | 0.00 |
| 5 | 02/26 | 20:00 | 20 | 18 | 95 | 30.32 | E | 3 | 0.00 |
| 6 | 02/26 | 19:00 | 20 | 18 | 95 | 30.34 | ENE | 2 | 0.00 |
| 7 | 02/26 | 18:00 | 20 | 18 | 94 | 30.33 | NE | 1 | 0.01 |
| 8 | 02/26 | 17:00 | 21 | 19 | 92 | 30.32 | NE | 5 | 0.00 |
| 9 | 02/26 | 16:00 | 22 | 19 | 91 | 30.32 | E | 6 | 0.01 |
| 10 | 02/26 | 15:00 | 22 | 19 | 89 | 30.33 | NE | 2 | 0.00 |
| 11 | 02/26 | 14:00 | 22 | 17 | 84 | 30.35 | ENE | 2 | 0.00 |
| 12 | 02/26 | 13:00 | 22 | 14 | 73 | 30.37 | E | 5 | 0.00 |
| 13 | 02/26 | 12:00 | 23 | 10 | 59 | 30.39 | SSE | 7 | 0.00 |
| 14 | 02/26 | 11:00 | 23 | 10 | 59 | 30.39 | E | 7 | 0.00 |
| 15 | 02/26 | 10:00 | 21 | 8 | 59 | 30.42 | E | 12 | 0.00 |
| 16 | 02/26 | 09:00 | 18 | 6 | 60 | 30.43 | ENE | 2 | 0.00 |
| 17 | 02/26 | 08:00 | 16 | 5 | 63 | 30.44 | NE | 8 | 0.00 |
| 18 | 02/26 | 07:00 | 15 | 5 | 64 | 30.44 | E | 5 | 0.00 |
| 19 | 02/26 | 06:00 | 15 | 5 | 66 | 30.44 | ENE | 7 | 0.00 |
| 20 | 02/26 | 05:00 | 15 | 6 | 68 | 30.43 | NE | 6 | 0.00 |
| 21 | 02/26 | 04:00 | 14 | 7 | 74 | 30.41 | NE | 3 | 0.00 |
| 22 | 02/26 | 03:00 | 13 | 6 | 75 | 30.42 | NE | 3 | 0.00 |
| 23 | 02/26 | 02:00 | 14 | 7 | 76 | 30.42 | ENE | 3 | 0.00 |
| 24 | 02/26 | 01:00 | 15 | 8 | 74 | 30.42 | ENE | 3 | 0.00 |